Time;durP1;ratioP1;P1;durP2;ratioP2;P2;SDS_P1;SDS_P2;PMS_P1;PMS_P2;Temp;Humidity;BMP_temperature;BMP_pressure;BME280_temperature;BME280_humidity;BME280_pressure;Samples;Min_cycle;Max_cycle;Signal;HPM_P1;HPM_P2
2023/10/29 00:01:11;;;;;;;8.93;8.13;;;;;;;14.33;75.11;92741.91;5076908;28;20231;-82
2023/10/29 00:03:36;;;;;;;9.77;8.90;;;;;;;14.13;75.27;92718.69;5076695;28;20189;-82
2023/10/29 00:06:02;;;;;;;10.70;9.80;;;;;;;14.23;75.38;92742.13;5050318;28;20259;-82
2023/10/29 00:08:27;;;;;;;9.10;8.43;;;;;;;14.24;75.35;92735.81;5041700;28;20241;-82
2023/10/29 00:10:52;;;;;;;9.27;8.53;;;;;;;14.06;75.51;92720.97;5061735;28;20232;-82
2023/10/29 00:13:18;;;;;;;9.20;8.50;;;;;;;14.03;75.94;92737.31;5070136;28;20177;-82
2023/10/29 00:15:43;;;;;;;9.97;9.27;;;;;;;14.05;75.74;92737.81;5066685;28;20281;-82
2023/10/29 00:18:12;;;;;;;9.97;9.13;;;;;;;14.09;75.29;92736.13;5046956;28;20205;-82
2023/10/29 00:20:38;;;;;;;9.80;9.03;;;;;;;14.03;75.27;92739.94;5045378;28;20245;-83
2023/10/29 00:23:03;;;;;;;8.80;8.23;;;;;;;14.04;75.62;92749.38;5049595;28;20178;-82
2023/10/29 00:25:29;;;;;;;9.20;8.37;;;;;;;13.96;75.50;92749.31;5042461;28;20238;-82
2023/10/29 00:27:55;;;;;;;9.43;8.87;;;;;;;13.94;75.70;92746.97;5040957;28;20194;-81
2023/10/29 00:30:20;;;;;;;9.87;9.17;;;;;;;13.91;76.08;92744.16;5042492;28;20226;-83
2023/10/29 00:32:46;;;;;;;10.73;8.40;;;;;;;13.84;75.97;92752.41;5065415;28;20202;-82
2023/10/29 00:35:11;;;;;;;8.80;8.03;;;;;;;13.76;75.61;92742.63;5048727;28;20222;-82
2023/10/29 00:37:37;;;;;;;9.53;9.10;;;;;;;13.56;75.67;92727.28;5075702;28;20181;-82
2023/10/29 00:40:04;;;;;;;9.33;8.63;;;;;;;13.75;75.06;92758.66;5052143;28;20244;-83
2023/10/29 00:42:29;;;;;;;8.80;8.10;;;;;;;13.61;75.77;92753.44;5073237;28;20189;-82
2023/10/29 00:44:54;;;;;;;9.20;8.63;;;;;;;13.62;75.49;92747.09;5069432;28;20221;-82
2023/10/29 00:47:20;;;;;;;9.27;8.63;;;;;;;13.55;75.81;92757.22;5056375;28;20181;-82
2023/10/29 00:49:46;;;;;;;9.10;8.20;;;;;;;13.31;76.20;92743.53;5069063;28;20248;-82
2023/10/29 00:52:13;;;;;;;9.90;9.17;;;;;;;13.48;74.26;92756.81;5064570;28;20186;-82
2023/10/29 00:54:39;;;;;;;9.23;8.73;;;;;;;13.46;75.49;92764.22;5069515;28;20209;-82
2023/10/29 00:57:06;;;;;;;9.83;9.07;;;;;;;13.49;76.22;92762.84;5069718;28;20245;-83
2023/10/29 00:59:32;;;;;;;9.50;8.70;;;;;;;13.42;75.75;92771.09;5068994;28;20216;-82
2023/10/29 01:01:58;;;;;;;10.23;9.57;;;;;;;13.32;75.87;92763.44;5069186;28;20205;-81
2023/10/29 01:04:23;;;;;;;9.73;9.13;;;;;;;13.25;77.60;92762.25;5069506;28;20197;-82
2023/10/29 01:06:49;;;;;;;9.53;8.63;;;;;;;13.17;76.98;92766.31;5069768;28;20209;-82
2023/10/29 01:09:15;;;;;;;9.97;9.10;;;;;;;13.25;76.82;92757.00;5069314;28;20193;-82
2023/10/29 01:11:40;;;;;;;9.77;9.10;;;;;;;13.22;76.56;92770.69;5069195;28;20220;-82
2023/10/29 01:14:06;;;;;;;9.67;9.07;;;;;;;13.11;76.61;92766.69;5069417;28;20220;-82
2023/10/29 01:16:31;;;;;;;9.23;8.63;;;;;;;13.13;76.57;92772.44;5082311;28;20235;-82
2023/10/29 01:18:58;;;;;;;9.63;9.03;;;;;;;13.04;76.51;92769.72;5063628;28;20193;-82
2023/10/29 01:21:25;;;;;;;9.10;8.60;;;;;;;13.04;75.58;92767.09;5055350;28;20224;-82
2023/10/29 01:23:51;;;;;;;9.80;9.20;;;;;;;13.09;75.11;92771.47;5069344;28;20253;-83
2023/10/29 01:26:17;;;;;;;9.30;8.57;;;;;;;13.04;75.10;92772.34;5079730;28;20226;-79
2023/10/29 01:28:43;;;;;;;9.70;9.10;;;;;;;12.98;74.79;92768.19;5080461;28;20211;-81
2023/10/29 01:31:09;;;;;;;9.37;8.83;;;;;;;13.05;74.81;92771.28;5076038;28;20213;-81
2023/10/29 01:33:35;;;;;;;8.90;8.30;;;;;;;13.02;74.43;92764.00;5069182;28;20683;-82
2023/10/29 01:36:00;;;;;;;9.43;8.70;;;;;;;12.95;74.12;92759.09;5066431;28;20258;-83
2023/10/29 01:38:26;;;;;;;8.73;8.13;;;;;;;13.01;74.22;92765.06;5072911;28;20209;-82
2023/10/29 01:40:52;;;;;;;9.60;8.83;;;;;;;13.10;73.90;92768.56;5072404;28;20225;-83
2023/10/29 01:43:17;;;;;;;9.23;8.73;;;;;;;13.11;73.80;92770.09;5085235;28;20203;-82
2023/10/29 01:45:43;;;;;;;8.30;7.83;;;;;;;13.08;73.68;92780.38;5062845;28;20278;-82
2023/10/29 01:48:08;;;;;;;9.63;8.97;;;;;;;12.96;73.08;92749.38;5053023;28;20179;-82
2023/10/29 01:50:35;;;;;;;9.53;9.03;;;;;;;13.08;72.92;92756.78;5069730;28;20213;-81
2023/10/29 01:53:01;;;;;;;9.67;9.07;;;;;;;13.14;73.16;92774.00;5043349;28;20187;-82
2023/10/29 01:55:26;;;;;;;9.53;8.93;;;;;;;13.04;73.76;92771.56;5050962;28;20782;-84
2023/10/29 01:57:52;;;;;;;9.23;8.47;;;;;;;13.02;73.48;92768.44;5060592;28;20878;-83
2023/10/29 02:00:19;;;;;;;8.77;8.27;;;;;;;12.96;72.92;92760.63;5050369;28;20213;-83
2023/10/29 02:02:46;;;;;;;8.37;7.97;;;;;;;13.11;72.86;92775.34;5050966;28;20180;-79
2023/10/29 02:05:12;;;;;;;8.67;8.27;;;;;;;13.20;73.15;92778.09;5051615;28;20225;-84
2023/10/29 02:07:37;;;;;;;8.77;8.10;;;;;;;13.08;72.61;92775.16;5049310;28;20188;-83
2023/10/29 02:10:03;;;;;;;8.17;7.67;;;;;;;13.04;73.17;92756.63;5052736;28;20275;-82
2023/10/29 02:12:28;;;;;;;8.43;7.93;;;;;;;13.07;73.33;92774.38;5042074;28;20198;-81
2023/10/29 02:14:53;;;;;;;8.70;8.30;;;;;;;13.00;73.78;92783.66;5041679;28;20285;-82
2023/10/29 02:17:19;;;;;;;8.63;8.10;;;;;;;12.93;74.29;92778.78;5064870;28;20192;-81
2023/10/29 02:19:44;;;;;;;8.30;7.80;;;;;;;12.80;74.45;92769.84;5061490;28;20177;-82
2023/10/29 02:22:09;;;;;;;9.57;9.03;;;;;;;12.88;73.50;92782.28;5072430;28;20177;-83
2023/10/29 02:24:35;;;;;;;9.40;7.97;;;;;;;12.83;74.70;92778.94;5071604;28;20193;-82
2023/10/29 02:27:00;;;;;;;8.43;8.03;;;;;;;12.94;73.89;92777.72;5071656;28;20205;-83
2023/10/29 02:29:25;;;;;;;8.30;7.80;;;;;;;12.72;73.79;92733.81;5061485;28;20191;-82
2023/10/29 02:31:51;;;;;;;8.30;7.67;;;;;;;12.96;73.55;92783.47;5071344;28;20229;-82
2023/10/29 02:34:16;;;;;;;8.67;7.93;;;;;;;13.08;73.24;92783.78;5071308;28;20197;-84
2023/10/29 02:36:42;;;;;;;9.23;8.73;;;;;;;12.99;73.41;92769.78;5060529;28;20226;-83
2023/10/29 02:39:07;;;;;;;7.67;7.30;;;;;;;13.08;73.02;92777.75;5071945;28;20213;-83
2023/10/29 02:41:32;;;;;;;8.23;7.70;;;;;;;12.99;72.86;92767.16;5071526;28;20225;-82
2023/10/29 02:43:58;;;;;;;8.77;8.10;;;;;;;12.89;72.28;92738.50;5071116;28;20178;-84
2023/10/29 02:46:24;;;;;;;8.50;7.83;;;;;;;13.32;72.14;92789.66;5071219;28;20223;-83
2023/10/29 02:48:50;;;;;;;8.70;8.13;;;;;;;13.28;71.76;92772.94;5070826;28;20489;-83
2023/10/29 02:51:15;;;;;;;8.33;7.93;;;;;;;13.37;73.17;92792.19;5071115;28;20218;-83
2023/10/29 02:53:40;;;;;;;8.80;8.03;;;;;;;13.63;71.34;92780.16;5072855;28;20227;-82
2023/10/29 02:56:06;;;;;;;9.20;8.57;;;;;;;13.53;71.91;92779.56;5074589;28;20267;-83
2023/10/29 02:58:31;;;;;;;8.93;8.40;;;;;;;13.38;73.87;92791.13;5070195;28;20188;-82
2023/10/29 03:01:04;;;;;;;9.43;8.73;;;;;;;12.87;74.67;92740.66;5076007;28;20220;-81
2023/10/29 03:03:30;;;;;;;9.40;8.70;;;;;;;12.91;75.43;92778.28;5071399;28;20186;-83
2023/10/29 03:05:56;;;;;;;13.13;8.13;;;;;;;12.68;76.05;92768.72;5078095;28;20319;-82
2023/10/29 03:08:21;;;;;;;9.40;8.50;;;;;;;12.86;76.72;92783.63;5073529;28;20189;-83
2023/10/29 03:10:49;;;;;;;9.33;8.83;;;;;;;12.62;77.16;92786.34;5073631;28;20221;-83
2023/10/29 03:13:15;;;;;;;8.63;7.93;;;;;;;12.52;78.15;92785.75;5071911;28;20192;-82
2023/10/29 03:15:40;;;;;;;8.10;7.73;;;;;;;12.60;77.55;92798.19;5070461;28;20225;-83
2023/10/29 03:18:05;;;;;;;8.70;8.00;;;;;;;12.61;77.07;92790.06;5070976;28;20181;-82
2023/10/29 03:20:31;;;;;;;8.00;7.57;;;;;;;12.63;76.99;92793.16;5069677;28;20281;-81
2023/10/29 03:22:56;;;;;;;8.70;8.07;;;;;;;12.52;76.80;92799.63;5073272;28;20173;-81
2023/10/29 03:25:22;;;;;;;9.53;8.83;;;;;;;12.49;77.82;92791.56;5060409;28;20218;-82
2023/10/29 03:27:48;;;;;;;8.53;8.13;;;;;;;12.46;78.34;92792.13;5067901;28;20245;-83
2023/10/29 03:30:14;;;;;;;8.97;8.17;;;;;;;12.28;77.99;92782.44;5072689;28;20255;-82
2023/10/29 03:32:40;;;;;;;8.50;8.10;;;;;;;12.31;79.31;92815.91;5084839;28;20289;-82
2023/10/29 03:35:05;;;;;;;8.80;7.93;;;;;;;12.36;78.69;92818.44;5070502;28;20233;-82
2023/10/29 03:37:31;;;;;;;9.40;8.80;;;;;;;12.28;79.93;92816.47;5086634;28;20180;-81
2023/10/29 03:39:56;;;;;;;8.03;7.47;;;;;;;12.18;80.31;92821.84;5069375;28;20221;-82
2023/10/29 03:42:21;;;;;;;8.73;8.33;;;;;;;12.03;81.83;92809.72;5073436;28;20742;-83
2023/10/29 03:44:47;;;;;;;9.17;8.57;;;;;;;11.83;81.12;92798.78;5071869;28;20233;-83
2023/10/29 03:47:12;;;;;;;8.30;7.70;;;;;;;11.70;80.84;92779.31;5070864;28;20205;-83
2023/10/29 03:49:41;;;;;;;8.57;8.17;;;;;;;11.79;80.76;92803.78;5082307;28;20209;-82
2023/10/29 03:52:06;;;;;;;9.03;8.47;;;;;;;11.76;84.32;92814.00;5052153;28;20194;-80
2023/10/29 03:54:34;;;;;;;10.03;9.07;;;;;;;11.68;84.36;92801.56;5057400;28;20183;-81
2023/10/29 03:56:59;;;;;;;9.60;9.10;;;;;;;11.73;84.81;92814.56;5071996;28;20184;-82
2023/10/29 03:59:24;;;;;;;9.37;8.60;;;;;;;11.72;83.09;92813.03;5071937;28;20268;-83
2023/10/29 04:01:50;;;;;;;8.87;8.27;;;;;;;11.54;82.91;92798.81;5071411;28;20213;-82
2023/10/29 04:04:15;;;;;;;8.23;7.83;;;;;;;11.33;82.89;92795.63;5082915;28;20186;-83
2023/10/29 04:06:42;;;;;;;9.80;9.10;;;;;;;11.49;82.80;92824.25;5053949;28;20282;-82
2023/10/29 04:09:07;;;;;;;8.97;8.43;;;;;;;11.43;82.41;92812.28;5055988;28;20189;-82
2023/10/29 04:11:33;;;;;;;9.07;8.17;;;;;;;11.50;81.73;92818.75;5065411;28;20215;-83
2023/10/29 04:13:59;;;;;;;8.70;8.00;;;;;;;11.47;82.06;92831.59;5060158;28;20182;-82
2023/10/29 04:16:24;;;;;;;8.70;8.10;;;;;;;11.47;81.75;92821.88;5069681;28;20220;-83
2023/10/29 04:18:49;;;;;;;8.90;8.30;;;;;;;11.43;81.14;92823.50;5069780;28;20262;-82
2023/10/29 04:21:15;;;;;;;7.80;7.47;;;;;;;11.44;81.21;92822.44;5081240;28;20213;-82
2023/10/29 04:23:40;;;;;;;8.67;8.27;;;;;;;11.48;80.99;92828.69;5080245;28;20213;-83
2023/10/29 04:26:05;;;;;;;8.93;8.33;;;;;;;11.46;81.16;92830.00;5069051;28;20259;-83
2023/10/29 04:28:31;;;;;;;8.97;8.57;;;;;;;11.25;80.75;92805.94;5068876;28;20187;-82
2023/10/29 04:30:56;;;;;;;8.53;8.07;;;;;;;11.42;80.75;92814.13;5067390;28;20248;-81
2023/10/29 04:33:22;;;;;;;7.80;7.50;;;;;;;11.41;80.49;92817.03;5070006;28;20213;-82
2023/10/29 04:35:47;;;;;;;8.70;7.97;;;;;;;11.33;80.49;92811.31;5071662;28;20224;-83
2023/10/29 04:38:13;;;;;;;8.50;8.10;;;;;;;11.26;80.63;92813.50;5087532;28;20230;-82
2023/10/29 04:40:39;;;;;;;8.03;7.63;;;;;;;11.28;81.54;92813.97;5070412;28;20242;-83
2023/10/29 04:43:05;;;;;;;8.27;7.77;;;;;;;11.13;81.18;92785.41;5079328;28;20244;-83
2023/10/29 04:45:30;;;;;;;9.17;8.53;;;;;;;11.27;80.43;92816.88;5072180;28;20232;-83
2023/10/29 04:47:56;;;;;;;8.77;8.03;;;;;;;11.30;81.43;92814.50;5067192;28;20188;-83
2023/10/29 04:50:21;;;;;;;8.80;8.23;;;;;;;11.35;81.32;92809.22;5071511;28;20223;-82
2023/10/29 04:52:47;;;;;;;9.03;7.93;;;;;;;11.26;82.27;92810.09;5080039;28;20189;-82
2023/10/29 04:55:12;;;;;;;9.03;8.63;;;;;;;11.15;81.89;92809.44;5073832;28;20232;-83
2023/10/29 04:57:37;;;;;;;8.60;8.10;;;;;;;11.07;83.30;92812.66;5079170;28;20198;-86
2023/10/29 05:00:04;;;;;;;8.70;8.10;;;;;;;11.12;81.80;92824.88;5064242;28;20320;-84
2023/10/29 05:02:30;;;;;;;9.03;8.53;;;;;;;11.09;82.97;92843.72;5068077;28;20186;-84
2023/10/29 05:04:55;;;;;;;9.20;8.80;;;;;;;10.95;83.05;92829.75;5081099;28;20238;-83
2023/10/29 05:07:21;;;;;;;9.57;8.97;;;;;;;10.90;84.31;92821.94;5073943;28;20201;-83
2023/10/29 05:09:46;;;;;;;8.47;8.17;;;;;;;11.06;83.13;92863.34;5066565;28;20202;-84
2023/10/29 05:12:12;;;;;;;9.17;8.57;;;;;;;10.90;83.35;92864.53;5064968;28;20201;-83
2023/10/29 05:14:37;;;;;;;9.73;8.93;;;;;;;10.97;83.33;92867.56;5057099;28;20244;-83
2023/10/29 05:17:03;;;;;;;9.67;8.87;;;;;;;11.06;83.24;92873.00;5039786;28;20193;-83
2023/10/29 05:19:29;;;;;;;9.93;9.23;;;;;;;10.90;82.99;92846.22;5058079;28;20227;-79
2023/10/29 05:21:54;;;;;;;9.73;8.80;;;;;;;11.11;83.11;92880.81;5051381;28;20234;-83
2023/10/29 05:24:20;;;;;;;9.30;8.70;;;;;;;11.32;82.65;92877.72;5068915;28;20193;-81
2023/10/29 05:26:46;;;;;;;9.73;9.10;;;;;;;11.35;82.85;92889.47;5068782;28;20232;-81
2023/10/29 05:29:11;;;;;;;9.70;8.97;;;;;;;11.14;83.29;92843.69;5068309;28;20178;-82
2023/10/29 05:31:37;;;;;;;10.90;10.20;;;;;;;11.30;83.74;92879.03;5068325;28;20234;-81
2023/10/29 05:34:02;;;;;;;11.07;10.10;;;;;;;11.38;83.87;92884.47;5072684;28;20194;-81
2023/10/29 05:36:28;;;;;;;10.20;9.43;;;;;;;11.60;83.29;92888.44;5072082;28;20234;-82
2023/10/29 05:38:53;;;;;;;10.83;10.03;;;;;;;11.65;83.17;92885.78;5070508;28;20195;-81
2023/10/29 05:41:19;;;;;;;9.80;9.23;;;;;;;11.65;83.59;92885.78;5070473;28;20228;-81
2023/10/29 05:43:44;;;;;;;10.23;9.37;;;;;;;11.67;82.00;92894.16;5070336;28;20187;-82
2023/10/29 05:46:13;;;;;;;10.97;9.50;;;;;;;11.82;82.14;92896.59;5069081;28;20269;-80
2023/10/29 05:48:39;;;;;;;9.67;8.73;;;;;;;11.90;81.76;92893.38;5068787;28;20181;-79
2023/10/29 05:51:04;;;;;;;10.53;9.57;;;;;;;12.00;81.50;92903.72;5068246;28;20221;-79
2023/10/29 05:53:30;;;;;;;8.93;8.37;;;;;;;12.05;81.33;92908.88;5070519;28;20184;-80
2023/10/29 05:55:56;;;;;;;10.30;9.33;;;;;;;12.16;81.82;92907.72;5068385;28;20240;-81
2023/10/29 05:58:23;;;;;;;10.10;9.03;;;;;;;12.24;82.63;92914.94;5063287;28;20234;-81
2023/10/29 06:00:49;;;;;;;9.93;9.30;;;;;;;12.27;84.26;92914.38;5067239;28;20233;-81
2023/10/29 06:03:15;;;;;;;9.43;9.00;;;;;;;12.18;84.32;92921.31;5067647;28;20220;-79
2023/10/29 06:05:41;;;;;;;10.23;9.43;;;;;;;12.09;83.89;92908.06;5058379;28;20229;-79
2023/10/29 06:08:06;;;;;;;9.33;8.77;;;;;;;12.23;84.46;92924.63;5067681;28;20210;-79
2023/10/29 06:10:31;;;;;;;9.50;8.93;;;;;;;12.27;82.86;92923.03;5064656;28;20284;-77
2023/10/29 06:12:59;;;;;;;9.57;8.87;;;;;;;12.24;83.35;92920.19;5066657;28;20209;-76
2023/10/29 06:15:25;;;;;;;9.20;8.53;;;;;;;12.40;82.02;92939.88;5067500;28;20215;-77
2023/10/29 06:17:50;;;;;;;10.40;9.67;;;;;;;12.46;81.70;92944.78;5067259;28;20185;-76
2023/10/29 06:20:20;;;;;;;11.20;10.40;;;;;;;12.58;81.50;92946.97;5066897;28;20239;-77
2023/10/29 06:22:47;;;;;;;9.60;8.90;;;;;;;12.68;81.40;92944.25;5069967;28;20209;-77
2023/10/29 06:25:15;;;;;;;8.90;8.30;;;;;;;12.88;80.29;92947.38;5071398;28;20311;-78
2023/10/29 06:27:40;;;;;;;10.53;9.63;;;;;;;12.73;81.13;92950.16;5071923;28;20202;-77
2023/10/29 06:30:07;;;;;;;10.13;9.13;;;;;;;12.73;81.82;92952.03;5071040;28;20274;-76
2023/10/29 06:32:32;;;;;;;10.20;9.50;;;;;;;12.78;82.14;92955.34;5068532;28;20290;-76
2023/10/29 06:34:58;;;;;;;11.27;9.53;;;;;;;12.86;82.04;92964.41;5067124;28;20962;-79
2023/10/29 06:37:23;;;;;;;10.73;9.57;;;;;;;13.06;80.14;92961.53;5071577;28;20201;-80
2023/10/29 06:39:48;;;;;;;12.37;10.30;;;;;;;12.90;81.12;92949.69;5071016;28;20225;-78
2023/10/29 06:42:14;;;;;;;11.80;10.67;;;;;;;13.02;81.27;92962.38;5067342;28;20879;-81
2023/10/29 06:44:39;;;;;;;10.83;9.90;;;;;;;13.03;79.38;92969.22;5067571;28;20203;-81
2023/10/29 06:47:05;;;;;;;10.73;9.90;;;;;;;13.07;79.32;92941.34;5071663;28;20173;-79
2023/10/29 06:49:30;;;;;;;9.90;9.17;;;;;;;13.45;78.14;92961.97;5076081;28;20244;-73
2023/10/29 06:51:55;;;;;;;10.37;8.47;;;;;;;13.40;77.10;92975.16;5072086;28;20185;-75
2023/10/29 06:54:21;;;;;;;9.87;9.23;;;;;;;13.47;77.37;92970.34;5070975;28;20189;-77
2023/10/29 06:56:47;;;;;;;9.50;8.77;;;;;;;13.57;77.30;92983.28;5071040;28;20217;-80
2023/10/29 06:59:12;;;;;;;9.50;8.73;;;;;;;13.79;76.93;92988.69;5068426;28;20181;-77
2023/10/29 07:01:37;;;;;;;13.93;9.73;;;;;;;13.99;75.95;92972.59;5066484;28;20225;-79
2023/10/29 07:04:03;;;;;;;11.33;10.20;;;;;;;14.21;76.12;92980.59;5066104;28;20257;-76
2023/10/29 07:06:30;;;;;;;11.20;10.07;;;;;;;14.17;75.95;92987.50;5063685;28;20225;-74
2023/10/29 07:08:55;;;;;;;11.60;10.50;;;;;;;13.88;77.92;92997.47;5068217;28;20194;-74
2023/10/29 07:11:20;;;;;;;11.20;10.40;;;;;;;13.84;77.85;93001.75;5069939;28;20288;-74
2023/10/29 07:13:46;;;;;;;10.87;10.10;;;;;;;13.97;77.76;93006.25;5068801;28;20185;-75
2023/10/29 07:16:11;;;;;;;11.10;10.13;;;;;;;14.10;76.11;92994.97;5067144;28;20233;-77
2023/10/29 07:18:36;;;;;;;10.43;9.73;;;;;;;14.15;75.27;93002.78;5069740;28;20194;-76
2023/10/29 07:21:02;;;;;;;10.93;9.80;;;;;;;14.13;75.17;92994.41;5067244;28;20240;-79
2023/10/29 07:23:27;;;;;;;11.77;10.33;;;;;;;14.24;74.53;93000.28;5064824;28;20181;-75
2023/10/29 07:25:53;;;;;;;9.23;8.53;;;;;;;14.26;72.14;93006.81;5064885;28;20698;-76
2023/10/29 07:28:19;;;;;;;10.97;9.97;;;;;;;14.21;73.32;92983.22;5056357;28;20997;-76
2023/10/29 07:30:45;;;;;;;9.67;8.70;;;;;;;14.85;69.59;93000.66;5058573;28;20253;-75
2023/10/29 07:33:10;;;;;;;9.57;8.80;;;;;;;15.01;69.02;93001.09;5060323;28;20186;-77
2023/10/29 07:35:36;;;;;;;9.70;9.10;;;;;;;14.82;68.44;93011.00;5055719;28;20268;-76
2023/10/29 07:38:02;;;;;;;9.00;8.43;;;;;;;14.75;69.78;93005.34;5053041;28;20219;-77
2023/10/29 07:40:27;;;;;;;8.93;8.53;;;;;;;15.01;69.23;93015.03;5058487;28;20237;-76
2023/10/29 07:42:53;;;;;;;8.90;8.23;;;;;;;15.14;68.16;93016.09;5060911;28;20204;-77
2023/10/29 07:45:18;;;;;;;9.20;8.50;;;;;;;15.10;68.08;93015.09;5059944;28;20229;-77
2023/10/29 07:47:44;;;;;;;9.37;8.87;;;;;;;15.01;67.97;93009.78;5061696;28;20288;-74
2023/10/29 07:50:12;;;;;;;8.40;8.00;;;;;;;15.51;65.01;93007.91;5066184;28;20285;-75
2023/10/29 07:52:39;;;;;;;9.87;9.07;;;;;;;15.63;65.53;93019.47;5068686;28;20193;-75
2023/10/29 08:00:24;;;;;;;10.40;9.40;;;;;;;15.44;67.34;93021.47;5091119;27;20323;-80
2023/10/29 08:02:49;;;;;;;13.43;10.27;;;;;;;15.48;68.77;93024.31;5052395;28;20190;-82
2023/10/29 08:05:15;;;;;;;11.67;10.47;;;;;;;15.30;68.98;93023.34;5053648;28;20222;-83
2023/10/29 08:07:40;;;;;;;11.30;10.40;;;;;;;15.28;68.59;93027.34;5057711;28;20194;-85
2023/10/29 08:10:07;;;;;;;11.50;10.40;;;;;;;15.54;68.16;93028.38;5063177;28;20242;-76
2023/10/29 08:12:34;;;;;;;10.77;9.77;;;;;;;15.84;66.79;93014.50;5071576;28;20188;-78
2023/10/29 08:14:59;;;;;;;11.50;10.40;;;;;;;15.99;66.74;93019.38;5071719;28;20220;-73
2023/10/29 08:17:25;;;;;;;11.07;10.13;;;;;;;15.95;67.17;93023.72;5086665;28;20191;-74
2023/10/29 08:19:50;;;;;;;10.27;9.57;;;;;;;15.71;67.38;93015.34;5079946;28;20228;-73
2023/10/29 08:22:16;;;;;;;10.33;9.57;;;;;;;15.98;67.14;93010.69;5085002;28;20207;-74
2023/10/29 08:24:41;;;;;;;11.67;9.73;;;;;;;16.35;65.28;93017.41;5077966;28;20581;-71
2023/10/29 08:27:07;;;;;;;10.67;9.67;;;;;;;16.59;64.02;93020.47;5087392;28;20269;-72
2023/10/29 08:29:35;;;;;;;8.70;8.00;;;;;;;16.40;64.66;93012.03;5083451;28;20181;-75
2023/10/29 08:32:02;;;;;;;10.60;9.80;;;;;;;16.71;63.67;93031.25;5083169;28;20181;-72
2023/10/29 08:34:27;;;;;;;9.17;8.60;;;;;;;16.83;63.70;93044.63;5084343;28;20213;-71
2023/10/29 08:36:54;;;;;;;22.77;13.23;;;;;;;16.84;63.81;93038.25;5080453;28;20205;-72
2023/10/29 08:39:21;;;;;;;12.73;10.33;;;;;;;16.71;63.71;93047.06;5083686;28;20221;-73
2023/10/29 08:41:47;;;;;;;12.63;11.37;;;;;;;16.83;64.13;93039.34;5064093;28;20228;-74
2023/10/29 08:44:12;;;;;;;13.03;10.47;;;;;;;16.62;65.09;93048.91;5055849;28;20186;-74
2023/10/29 08:46:38;;;;;;;12.93;11.63;;;;;;;16.78;64.35;93041.34;5075474;28;20229;-74
2023/10/29 08:49:03;;;;;;;11.47;10.47;;;;;;;16.84;63.30;93050.69;5080554;28;20181;-73
2023/10/29 08:51:28;;;;;;;14.27;10.20;;;;;;;16.80;63.34;93044.44;5073996;28;20292;-76
2023/10/29 08:53:54;;;;;;;11.60;10.77;;;;;;;16.76;63.95;93049.53;5079670;28;20189;-77
2023/10/29 08:56:19;;;;;;;11.70;10.33;;;;;;;16.91;62.42;93045.72;5088619;28;20242;-77
2023/10/29 08:58:45;;;;;;;9.63;9.00;;;;;;;16.95;62.46;93057.22;5082889;28;20308;-77
2023/10/29 09:01:12;;;;;;;11.20;10.30;;;;;;;17.05;61.53;93052.44;5078930;28;20297;-74
2023/10/29 09:03:37;;;;;;;10.93;9.93;;;;;;;17.26;60.32;93055.28;5079861;28;20188;-74
2023/10/29 09:06:03;;;;;;;11.23;10.43;;;;;;;17.11;61.74;93051.22;5074713;28;20228;-74
2023/10/29 09:08:31;;;;;;;13.80;10.33;;;;;;;16.50;63.33;93050.53;5087920;28;20188;-75
2023/10/29 09:10:57;;;;;;;10.87;9.90;;;;;;;16.51;63.40;93047.59;5070791;28;20288;-76
2023/10/29 09:13:23;;;;;;;10.20;9.33;;;;;;;16.53;63.04;93042.03;5061288;28;20178;-75
2023/10/29 09:15:49;;;;;;;11.27;10.33;;;;;;;16.58;62.67;93045.28;5070532;28;20221;-76
2023/10/29 09:18:14;;;;;;;11.57;10.40;;;;;;;16.66;62.57;93044.56;5066054;28;21073;-74
2023/10/29 09:20:40;;;;;;;11.13;10.03;;;;;;;17.10;61.37;93043.59;5059956;28;20234;-75
2023/10/29 09:23:06;;;;;;;13.33;9.57;;;;;;;17.11;61.15;93040.66;5063912;28;20241;-75
2023/10/29 09:25:31;;;;;;;10.67;9.47;;;;;;;16.74;61.18;93029.84;5058749;28;20214;-76
2023/10/29 09:27:58;;;;;;;13.93;10.60;;;;;;;16.84;61.78;93043.53;5061030;28;20248;-74
2023/10/29 09:30:23;;;;;;;11.47;10.23;;;;;;;17.25;61.22;93046.59;5064961;28;20324;-75
2023/10/29 09:32:48;;;;;;;10.57;9.57;;;;;;;17.69;58.86;93050.06;5065900;28;20178;-75
2023/10/29 09:35:14;;;;;;;12.63;10.80;;;;;;;17.80;58.48;93056.59;5069346;28;20304;-74
2023/10/29 09:37:39;;;;;;;10.67;9.57;;;;;;;17.73;58.99;93051.00;5063882;28;20185;-75
2023/10/29 09:40:08;;;;;;;10.70;9.53;;;;;;;17.67;58.78;93036.38;5059261;28;20226;-75
2023/10/29 09:42:38;;;;;;;9.57;8.83;;;;;;;17.43;59.50;93042.88;5042273;28;20178;-75
2023/10/29 09:45:04;;;;;;;10.87;9.17;;;;;;;17.43;58.63;93042.88;5045431;28;20222;-75
2023/10/29 09:47:31;;;;;;;14.77;8.47;;;;;;;17.46;58.37;93046.81;5035515;28;20250;-74
2023/10/29 09:49:57;;;;;;;11.40;10.17;;;;;;;17.76;57.88;93040.56;5042929;28;20232;-76
2023/10/29 09:52:32;;;;;;;13.13;8.90;;;;;;;17.70;58.63;93038.44;5071481;28;20182;-76
2023/10/29 09:54:58;;;;;;;11.70;9.37;;;;;;;17.78;59.38;93025.19;5071947;28;20232;-75
2023/10/29 09:57:24;;;;;;;9.93;9.10;;;;;;;17.83;57.00;93014.50;5071311;28;20270;-80
2023/10/29 09:59:49;;;;;;;10.13;9.20;;;;;;;17.71;59.18;93019.63;5070273;28;20240;-75
2023/10/29 10:02:15;;;;;;;9.53;8.83;;;;;;;17.92;58.52;93023.16;5073797;28;20198;-75
2023/10/29 10:04:40;;;;;;;9.40;8.70;;;;;;;17.95;58.63;93013.84;5066887;28;20210;-75
2023/10/29 10:07:06;;;;;;;10.57;9.43;;;;;;;18.21;57.13;93014.56;5084525;28;20196;-75
2023/10/29 10:09:51;;;;;;;9.97;9.27;;;;;;;18.39;56.68;93016.88;5054944;28;20196;-76
2023/10/29 10:12:17;;;;;;;8.40;7.87;;;;;;;18.37;55.41;93007.66;5036218;28;20182;-77
2023/10/29 10:14:42;;;;;;;9.27;8.77;;;;;;;18.50;54.99;93018.09;5049927;28;20228;-77
2023/10/29 10:17:12;;;;;;;13.27;9.77;;;;;;;18.43;55.20;93001.94;5050407;28;20187;-76
2023/10/29 10:19:37;;;;;;;9.40;8.63;;;;;;;17.99;55.72;93006.84;5042588;28;20227;-76
2023/10/29 10:22:06;;;;;;;11.77;8.27;;;;;;;17.66;57.21;92997.88;5036283;28;20199;-76
2023/10/29 10:24:37;;;;;;;10.57;9.47;;;;;;;18.08;56.74;93004.97;5049063;28;20186;-78
2023/10/29 10:27:03;;;;;;;9.43;8.73;;;;;;;18.26;54.91;92996.66;5067361;28;20204;-76
2023/10/29 10:29:33;;;;;;;8.30;7.73;;;;;;;18.28;56.25;92999.00;5061762;28;20202;-73
2023/10/29 10:32:06;;;;;;;10.10;9.23;;;;;;;18.56;55.67;93003.59;5047783;28;20174;-76
2023/10/29 10:34:38;;;;;;;9.33;8.60;;;;;;;18.29;55.70;92995.28;5043821;28;20219;-73
2023/10/29 10:37:04;;;;;;;9.87;9.17;;;;;;;18.32;55.99;92992.00;5068695;28;20209;-74
2023/10/29 10:39:32;;;;;;;9.80;9.13;;;;;;;18.09;56.02;92998.56;5064318;28;20281;-74
2023/10/29 10:42:00;;;;;;;9.73;9.00;;;;;;;18.08;56.45;92994.41;5059098;28;20185;-75
2023/10/29 10:44:29;;;;;;;9.83;9.03;;;;;;;18.33;55.74;92993.53;5058447;28;20256;-75
2023/10/29 10:46:56;;;;;;;10.07;9.23;;;;;;;18.67;55.04;92990.78;5062104;28;20294;-74
2023/10/29 10:49:23;;;;;;;8.93;8.23;;;;;;;18.82;53.91;92998.19;5062137;28;20202;-73
2023/10/29 10:51:52;;;;;;;9.03;8.53;;;;;;;18.71;53.88;92978.47;5065142;28;20218;-76
2023/10/29 10:54:18;;;;;;;9.60;8.90;;;;;;;18.69;54.53;92993.91;5076104;28;20195;-80
2023/10/29 10:56:43;;;;;;;9.40;8.83;;;;;;;18.54;55.23;92997.06;5047037;28;20962;-72
2023/10/29 10:59:09;;;;;;;10.53;9.70;;;;;;;18.54;55.08;92999.72;5040800;28;20248;-72
2023/10/29 11:01:37;;;;;;;10.43;8.87;;;;;;;18.73;55.70;92990.31;5057282;28;20954;-74
2023/10/29 11:04:03;;;;;;;9.90;9.30;;;;;;;19.02;54.07;92986.88;5060835;28;20182;-72
2023/10/29 11:06:32;;;;;;;10.73;9.73;;;;;;;18.82;54.53;92979.66;5056289;28;20221;-77
2023/10/29 11:08:59;;;;;;;10.03;9.23;;;;;;;18.99;52.87;92992.81;5066502;28;20180;-74
2023/10/29 11:11:44;;;;;;;10.00;9.30;;;;;;;18.90;53.81;92989.44;5060482;28;20225;-73
2023/10/29 11:14:14;;;;;;;9.87;9.00;;;;;;;18.97;53.28;92979.88;5077550;28;20210;-79
2023/10/29 11:16:47;;;;;;;11.50;9.87;;;;;;;18.89;54.53;92982.59;5064199;28;20247;-79
2023/10/29 11:19:45;;;;;;;9.43;8.47;;;;;;;18.83;53.17;92997.09;5058893;28;20219;-79
2023/10/29 11:22:14;;;;;;;10.17;9.40;;;;;;;19.03;52.23;92993.72;5058860;28;20477;-79
2023/10/29 11:24:40;;;;;;;9.30;8.57;;;;;;;19.10;52.47;92991.34;5068360;28;20187;-79
2023/10/29 11:27:37;;;;;;;9.77;8.90;;;;;;;19.16;49.14;92987.41;5072712;28;20195;-78
2023/10/29 11:30:15;;;;;;;10.13;9.20;;;;;;;19.34;49.22;92983.59;5062628;28;20236;-79